sensor_id;sensor_type;location;lat;lon;timestamp;temperature;humidity
16666;DHT22;8446;50.998;6.250;2023-08-21T00:01:33;19.10;99.90
16666;DHT22;8446;50.998;6.250;2023-08-21T00:04:00;18.90;99.90
16666;DHT22;8446;50.998;6.250;2023-08-21T00:06:27;18.80;99.90
16666;DHT22;8446;50.998;6.250;2023-08-21T00:08:54;18.80;99.90
16666;DHT22;8446;50.998;6.250;2023-08-21T00:11:21;18.70;99.90
16666;DHT22;8446;50.998;6.250;2023-08-21T00:13:49;18.80;99.90
16666;DHT22;8446;50.998;6.250;2023-08-21T00:16:16;18.80;99.90
16666;DHT22;8446;50.998;6.250;2023-08-21T00:18:44;18.90;99.90
16666;DHT22;8446;50.998;6.250;2023-08-21T00:21:11;18.70;99.90
16666;DHT22;8446;50.998;6.250;2023-08-21T00:23:38;18.80;99.90
16666;DHT22;8446;50.998;6.250;2023-08-21T00:26:05;18.70;99.90
16666;DHT22;8446;50.998;6.250;2023-08-21T00:28:32;18.90;99.90
16666;DHT22;8446;50.998;6.250;2023-08-21T00:31:02;18.80;99.90
16666;DHT22;8446;50.998;6.250;2023-08-21T00:33:30;18.80;99.90
16666;DHT22;8446;50.998;6.250;2023-08-21T00:35:57;18.80;99.90
16666;DHT22;8446;50.998;6.250;2023-08-21T00:38:24;19.00;99.90
16666;DHT22;8446;50.998;6.250;2023-08-21T00:40:52;18.90;99.90
16666;DHT22;8446;50.998;6.250;2023-08-21T00:43:19;18.90;99.90
16666;DHT22;8446;50.998;6.250;2023-08-21T00:45:47;18.90;99.90
16666;DHT22;8446;50.998;6.250;2023-08-21T00:48:15;18.90;99.90
16666;DHT22;8446;50.998;6.250;2023-08-21T00:50:43;18.90;99.90
16666;DHT22;8446;50.998;6.250;2023-08-21T00:53:11;18.90;99.90
16666;DHT22;8446;50.998;6.250;2023-08-21T00:55:39;18.70;99.90
16666;DHT22;8446;50.998;6.250;2023-08-21T00:58:08;18.40;99.90
16666;DHT22;8446;50.998;6.250;2023-08-21T01:00:36;18.40;99.90
16666;DHT22;8446;50.998;6.250;2023-08-21T01:03:03;18.40;99.90
16666;DHT22;8446;50.998;6.250;2023-08-21T01:05:32;18.60;99.90
16666;DHT22;8446;50.998;6.250;2023-08-21T01:08:02;18.40;99.90
16666;DHT22;8446;50.998;6.250;2023-08-21T01:10:45;18.30;99.90
16666;DHT22;8446;50.998;6.250;2023-08-21T01:13:26;18.20;99.90
16666;DHT22;8446;50.998;6.250;2023-08-21T01:15:58;18.20;99.90
16666;DHT22;8446;50.998;6.250;2023-08-21T01:18:26;18.20;99.90
16666;DHT22;8446;50.998;6.250;2023-08-21T01:20:56;18.40;99.90
16666;DHT22;8446;50.998;6.250;2023-08-21T01:23:31;18.40;99.90
16666;DHT22;8446;50.998;6.250;2023-08-21T01:25:58;18.20;99.90
16666;DHT22;8446;50.998;6.250;2023-08-21T01:28:25;18.20;99.90
16666;DHT22;8446;50.998;6.250;2023-08-21T01:30:57;18.20;99.90
16666;DHT22;8446;50.998;6.250;2023-08-21T01:33:26;18.20;99.90
16666;DHT22;8446;50.998;6.250;2023-08-21T01:35:57;18.10;99.90
16666;DHT22;8446;50.998;6.250;2023-08-21T01:38:25;18.20;99.90
16666;DHT22;8446;50.998;6.250;2023-08-21T01:40:54;18.40;99.90
16666;DHT22;8446;50.998;6.250;2023-08-21T01:43:21;18.40;99.90
16666;DHT22;8446;50.998;6.250;2023-08-21T01:45:48;18.20;99.90
16666;DHT22;8446;50.998;6.250;2023-08-21T01:48:15;18.20;99.90
16666;DHT22;8446;50.998;6.250;2023-08-21T01:50:42;18.30;99.90
16666;DHT22;8446;50.998;6.250;2023-08-21T01:53:09;18.20;99.90
16666;DHT22;8446;50.998;6.250;2023-08-21T01:55:36;18.40;99.90
16666;DHT22;8446;50.998;6.250;2023-08-21T01:58:05;18.30;99.90
16666;DHT22;8446;50.998;6.250;2023-08-21T02:00:32;18.20;99.90
16666;DHT22;8446;50.998;6.250;2023-08-21T02:02:59;18.30;99.90
16666;DHT22;8446;50.998;6.250;2023-08-21T02:05:25;18.30;99.90
16666;DHT22;8446;50.998;6.250;2023-08-21T02:07:52;18.30;99.90
16666;DHT22;8446;50.998;6.250;2023-08-21T02:10:19;18.30;99.90
16666;DHT22;8446;50.998;6.250;2023-08-21T02:12:47;18.40;99.90
16666;DHT22;8446;50.998;6.250;2023-08-21T02:15:16;18.30;99.90
16666;DHT22;8446;50.998;6.250;2023-08-21T02:17:43;18.30;99.90
16666;DHT22;8446;50.998;6.250;2023-08-21T02:20:11;18.40;99.90
16666;DHT22;8446;50.998;6.250;2023-08-21T02:22:38;18.50;99.90
16666;DHT22;8446;50.998;6.250;2023-08-21T02:25:05;18.40;99.90
16666;DHT22;8446;50.998;6.250;2023-08-21T02:27:32;18.40;99.90
16666;DHT22;8446;50.998;6.250;2023-08-21T02:29:59;18.40;99.90
16666;DHT22;8446;50.998;6.250;2023-08-21T02:32:27;18.30;99.90
16666;DHT22;8446;50.998;6.250;2023-08-21T02:34:54;18.40;99.90
16666;DHT22;8446;50.998;6.250;2023-08-21T02:37:21;18.40;99.90
16666;DHT22;8446;50.998;6.250;2023-08-21T02:39:48;18.30;99.90
16666;DHT22;8446;50.998;6.250;2023-08-21T02:42:15;18.30;99.90
16666;DHT22;8446;50.998;6.250;2023-08-21T02:44:42;18.20;99.90
16666;DHT22;8446;50.998;6.250;2023-08-21T02:47:09;18.20;99.90
16666;DHT22;8446;50.998;6.250;2023-08-21T02:49:37;18.30;99.90
16666;DHT22;8446;50.998;6.250;2023-08-21T02:52:05;17.90;99.90
16666;DHT22;8446;50.998;6.250;2023-08-21T02:54:32;17.70;99.90
16666;DHT22;8446;50.998;6.250;2023-08-21T02:56:59;17.90;99.90
16666;DHT22;8446;50.998;6.250;2023-08-21T02:59:26;18.00;99.90
16666;DHT22;8446;50.998;6.250;2023-08-21T03:01:53;18.30;99.90
16666;DHT22;8446;50.998;6.250;2023-08-21T03:04:20;18.40;99.90
16666;DHT22;8446;50.998;6.250;2023-08-21T03:06:50;18.10;99.90
16666;DHT22;8446;50.998;6.250;2023-08-21T03:09:16;18.20;99.90
16666;DHT22;8446;50.998;6.250;2023-08-21T03:11:43;18.00;99.90
16666;DHT22;8446;50.998;6.250;2023-08-21T03:14:10;17.60;99.90
16666;DHT22;8446;50.998;6.250;2023-08-21T03:16:37;17.40;99.90
16666;DHT22;8446;50.998;6.250;2023-08-21T03:19:04;17.50;99.90
16666;DHT22;8446;50.998;6.250;2023-08-21T03:21:31;17.40;99.90
16666;DHT22;8446;50.998;6.250;2023-08-21T03:23:59;17.30;99.90
16666;DHT22;8446;50.998;6.250;2023-08-21T03:26:26;17.20;99.90
16666;DHT22;8446;50.998;6.250;2023-08-21T03:28:53;17.20;99.90
16666;DHT22;8446;50.998;6.250;2023-08-21T03:31:20;17.20;99.90
16666;DHT22;8446;50.998;6.250;2023-08-21T03:33:47;17.30;99.90
16666;DHT22;8446;50.998;6.250;2023-08-21T03:36:14;17.20;99.90
16666;DHT22;8446;50.998;6.250;2023-08-21T03:38:41;17.40;99.90
16666;DHT22;8446;50.998;6.250;2023-08-21T03:41:09;17.30;99.90
16666;DHT22;8446;50.998;6.250;2023-08-21T03:43:37;17.40;99.90
16666;DHT22;8446;50.998;6.250;2023-08-21T03:46:03;17.50;99.90
16666;DHT22;8446;50.998;6.250;2023-08-21T03:48:30;17.60;99.90
16666;DHT22;8446;50.998;6.250;2023-08-21T03:50:57;17.30;99.90
16666;DHT22;8446;50.998;6.250;2023-08-21T03:53:24;17.30;99.90
16666;DHT22;8446;50.998;6.250;2023-08-21T03:55:51;17.20;99.90
16666;DHT22;8446;50.998;6.250;2023-08-21T03:58:19;17.10;99.90
16666;DHT22;8446;50.998;6.250;2023-08-21T04:00:46;17.00;99.90
16666;DHT22;8446;50.998;6.250;2023-08-21T04:03:13;17.10;99.90
16666;DHT22;8446;50.998;6.250;2023-08-21T04:05:40;17.20;99.90
16666;DHT22;8446;50.998;6.250;2023-08-21T04:08:07;17.30;99.90
16666;DHT22;8446;50.998;6.250;2023-08-21T04:10:34;17.30;99.90
16666;DHT22;8446;50.998;6.250;2023-08-21T04:13:01;17.20;99.90
16666;DHT22;8446;50.998;6.250;2023-08-21T04:15:30;17.10;99.90
16666;DHT22;8446;50.998;6.250;2023-08-21T04:17:57;17.10;99.90
16666;DHT22;8446;50.998;6.250;2023-08-21T04:20:23;17.10;99.90
16666;DHT22;8446;50.998;6.250;2023-08-21T04:22:51;17.10;99.90
16666;DHT22;8446;50.998;6.250;2023-08-21T04:25:17;16.80;99.90
16666;DHT22;8446;50.998;6.250;2023-08-21T04:27:44;16.80;99.90
16666;DHT22;8446;50.998;6.250;2023-08-21T04:30:12;16.70;99.90
16666;DHT22;8446;50.998;6.250;2023-08-21T04:32:40;16.50;99.90
16666;DHT22;8446;50.998;6.250;2023-08-21T04:35:08;16.20;99.90
16666;DHT22;8446;50.998;6.250;2023-08-21T04:37:37;16.20;99.90
16666;DHT22;8446;50.998;6.250;2023-08-21T04:40:05;16.00;99.90
16666;DHT22;8446;50.998;6.250;2023-08-21T04:42:33;15.90;99.90
16666;DHT22;8446;50.998;6.250;2023-08-21T04:44:59;16.10;99.90
16666;DHT22;8446;50.998;6.250;2023-08-21T04:47:28;16.00;99.90
16666;DHT22;8446;50.998;6.250;2023-08-21T04:49:56;16.20;99.90
16666;DHT22;8446;50.998;6.250;2023-08-21T04:52:23;16.30;99.90
16666;DHT22;8446;50.998;6.250;2023-08-21T04:54:51;16.30;99.90
16666;DHT22;8446;50.998;6.250;2023-08-21T04:57:18;16.30;99.90
16666;DHT22;8446;50.998;6.250;2023-08-21T04:59:46;16.40;99.90
16666;DHT22;8446;50.998;6.250;2023-08-21T05:02:13;16.40;99.90
16666;DHT22;8446;50.998;6.250;2023-08-21T05:04:40;16.50;99.90
16666;DHT22;8446;50.998;6.250;2023-08-21T05:07:09;16.60;99.90
16666;DHT22;8446;50.998;6.250;2023-08-21T05:09:36;16.70;99.90
16666;DHT22;8446;50.998;6.250;2023-08-21T05:12:03;16.70;99.90
16666;DHT22;8446;50.998;6.250;2023-08-21T05:14:30;16.80;99.90
16666;DHT22;8446;50.998;6.250;2023-08-21T05:16:57;16.80;99.90
16666;DHT22;8446;50.998;6.250;2023-08-21T05:19:24;16.90;99.90
16666;DHT22;8446;50.998;6.250;2023-08-21T05:21:51;16.90;99.90
16666;DHT22;8446;50.998;6.250;2023-08-21T05:24:19;17.00;99.90
16666;DHT22;8446;50.998;6.250;2023-08-21T05:26:46;17.10;99.90
16666;DHT22;8446;50.998;6.250;2023-08-21T05:29:13;17.10;99.90
16666;DHT22;8446;50.998;6.250;2023-08-21T05:31:39;17.10;99.90
16666;DHT22;8446;50.998;6.250;2023-08-21T05:34:06;17.10;99.90
16666;DHT22;8446;50.998;6.250;2023-08-21T05:36:33;17.30;99.90
16666;DHT22;8446;50.998;6.250;2023-08-21T05:39:02;17.30;99.90
16666;DHT22;8446;50.998;6.250;2023-08-21T05:41:32;17.40;99.90
16666;DHT22;8446;50.998;6.250;2023-08-21T05:43:59;17.40;99.90
16666;DHT22;8446;50.998;6.250;2023-08-21T05:46:26;17.60;99.90
16666;DHT22;8446;50.998;6.250;2023-08-21T05:48:53;17.60;99.90
16666;DHT22;8446;50.998;6.250;2023-08-21T05:51:19;17.60;99.90
16666;DHT22;8446;50.998;6.250;2023-08-21T05:53:46;17.60;99.90
16666;DHT22;8446;50.998;6.250;2023-08-21T05:56:13;17.70;99.90
16666;DHT22;8446;50.998;6.250;2023-08-21T05:58:41;17.70;99.90
16666;DHT22;8446;50.998;6.250;2023-08-21T06:01:08;17.70;99.90
16666;DHT22;8446;50.998;6.250;2023-08-21T06:03:34;17.80;99.90
16666;DHT22;8446;50.998;6.250;2023-08-21T06:06:01;17.90;99.90
16666;DHT22;8446;50.998;6.250;2023-08-21T06:08:28;18.00;99.90
16666;DHT22;8446;50.998;6.250;2023-08-21T06:10:55;18.10;99.90
16666;DHT22;8446;50.998;6.250;2023-08-21T06:13:22;18.10;99.90
16666;DHT22;8446;50.998;6.250;2023-08-21T06:15:50;18.20;99.90
16666;DHT22;8446;50.998;6.250;2023-08-21T06:18:17;18.30;99.90
16666;DHT22;8446;50.998;6.250;2023-08-21T06:20:44;18.40;99.90
16666;DHT22;8446;50.998;6.250;2023-08-21T06:23:11;18.30;99.90
16666;DHT22;8446;50.998;6.250;2023-08-21T06:25:38;18.40;99.90
16666;DHT22;8446;50.998;6.250;2023-08-21T06:28:05;18.50;99.90
16666;DHT22;8446;50.998;6.250;2023-08-21T06:30:32;18.60;99.90
16666;DHT22;8446;50.998;6.250;2023-08-21T06:33:00;18.60;99.90
16666;DHT22;8446;50.998;6.250;2023-08-21T06:35:27;18.60;99.90
16666;DHT22;8446;50.998;6.250;2023-08-21T06:37:53;18.60;99.90
16666;DHT22;8446;50.998;6.250;2023-08-21T06:40:21;18.60;99.90
16666;DHT22;8446;50.998;6.250;2023-08-21T06:42:48;18.70;99.90
16666;DHT22;8446;50.998;6.250;2023-08-21T06:45:16;18.90;99.90
16666;DHT22;8446;50.998;6.250;2023-08-21T06:47:43;19.00;99.90
16666;DHT22;8446;50.998;6.250;2023-08-21T06:50:12;19.00;99.90
16666;DHT22;8446;50.998;6.250;2023-08-21T06:52:39;19.00;99.90
16666;DHT22;8446;50.998;6.250;2023-08-21T06:55:06;19.00;99.90
16666;DHT22;8446;50.998;6.250;2023-08-21T06:57:33;19.10;99.90
16666;DHT22;8446;50.998;6.250;2023-08-21T07:00:00;19.40;99.90
16666;DHT22;8446;50.998;6.250;2023-08-21T07:02:27;19.60;99.90
16666;DHT22;8446;50.998;6.250;2023-08-21T07:04:54;19.50;99.90
16666;DHT22;8446;50.998;6.250;2023-08-21T07:07:22;19.60;99.90
16666;DHT22;8446;50.998;6.250;2023-08-21T07:09:50;19.50;99.90
16666;DHT22;8446;50.998;6.250;2023-08-21T07:12:19;19.50;99.90
16666;DHT22;8446;50.998;6.250;2023-08-21T07:14:46;19.60;99.90
16666;DHT22;8446;50.998;6.250;2023-08-21T07:17:14;19.80;99.90
16666;DHT22;8446;50.998;6.250;2023-08-21T07:19:40;19.80;99.90
16666;DHT22;8446;50.998;6.250;2023-08-21T07:22:07;19.90;99.90
16666;DHT22;8446;50.998;6.250;2023-08-21T07:24:35;19.80;99.90
16666;DHT22;8446;50.998;6.250;2023-08-21T07:27:02;20.10;99.90
16666;DHT22;8446;50.998;6.250;2023-08-21T07:29:29;20.00;99.90
16666;DHT22;8446;50.998;6.250;2023-08-21T07:31:56;20.10;99.90
16666;DHT22;8446;50.998;6.250;2023-08-21T07:34:23;20.20;99.90
16666;DHT22;8446;50.998;6.250;2023-08-21T07:36:50;20.20;99.90
16666;DHT22;8446;50.998;6.250;2023-08-21T07:39:16;20.30;99.90
16666;DHT22;8446;50.998;6.250;2023-08-21T07:41:44;20.30;99.90
16666;DHT22;8446;50.998;6.250;2023-08-21T07:44:11;20.30;99.90
16666;DHT22;8446;50.998;6.250;2023-08-21T07:46:38;20.50;99.90
16666;DHT22;8446;50.998;6.250;2023-08-21T07:49:05;20.80;99.90
16666;DHT22;8446;50.998;6.250;2023-08-21T07:51:32;21.00;99.90
16666;DHT22;8446;50.998;6.250;2023-08-21T07:53:59;21.00;99.90
16666;DHT22;8446;50.998;6.250;2023-08-21T07:56:26;20.80;99.90
16666;DHT22;8446;50.998;6.250;2023-08-21T07:58:54;21.30;99.90
16666;DHT22;8446;50.998;6.250;2023-08-21T08:01:21;21.10;99.90
16666;DHT22;8446;50.998;6.250;2023-08-21T08:03:47;21.00;99.90
16666;DHT22;8446;50.998;6.250;2023-08-21T08:06:15;21.20;99.90
16666;DHT22;8446;50.998;6.250;2023-08-21T08:08:42;21.30;99.90
16666;DHT22;8446;50.998;6.250;2023-08-21T08:11:09;21.40;99.90
16666;DHT22;8446;50.998;6.250;2023-08-21T08:13:35;21.60;99.90
16666;DHT22;8446;50.998;6.250;2023-08-21T08:16:04;21.50;99.90
16666;DHT22;8446;50.998;6.250;2023-08-21T08:18:30;21.40;99.90
16666;DHT22;8446;50.998;6.250;2023-08-21T08:20:57;21.80;99.90
16666;DHT22;8446;50.998;6.250;2023-08-21T08:23:24;21.50;99.90
16666;DHT22;8446;50.998;6.250;2023-08-21T08:25:51;21.60;99.90
16666;DHT22;8446;50.998;6.250;2023-08-21T08:28:18;21.70;99.90
16666;DHT22;8446;50.998;6.250;2023-08-21T08:30:45;21.90;99.90
16666;DHT22;8446;50.998;6.250;2023-08-21T08:33:14;21.90;99.90
16666;DHT22;8446;50.998;6.250;2023-08-21T08:35:41;22.10;99.90
16666;DHT22;8446;50.998;6.250;2023-08-21T08:38:07;22.10;99.90
16666;DHT22;8446;50.998;6.250;2023-08-21T08:40:37;22.00;99.90
16666;DHT22;8446;50.998;6.250;2023-08-21T08:43:04;21.90;99.90
16666;DHT22;8446;50.998;6.250;2023-08-21T08:45:32;21.90;99.90
16666;DHT22;8446;50.998;6.250;2023-08-21T08:48:00;22.30;99.90
16666;DHT22;8446;50.998;6.250;2023-08-21T08:50:30;22.20;99.90
16666;DHT22;8446;50.998;6.250;2023-08-21T08:52:57;22.20;99.90
16666;DHT22;8446;50.998;6.250;2023-08-21T08:55:24;22.60;99.90
16666;DHT22;8446;50.998;6.250;2023-08-21T08:57:52;22.90;99.90
16666;DHT22;8446;50.998;6.250;2023-08-21T09:00:19;23.00;99.90
16666;DHT22;8446;50.998;6.250;2023-08-21T09:02:48;22.70;99.90
16666;DHT22;8446;50.998;6.250;2023-08-21T09:05:15;22.60;99.90
16666;DHT22;8446;50.998;6.250;2023-08-21T09:07:43;23.00;99.90
16666;DHT22;8446;50.998;6.250;2023-08-21T09:10:13;22.90;99.90
16666;DHT22;8446;50.998;6.250;2023-08-21T09:12:45;22.80;99.90
16666;DHT22;8446;50.998;6.250;2023-08-21T09:15:12;23.00;99.90
16666;DHT22;8446;50.998;6.250;2023-08-21T09:17:39;23.00;99.90
16666;DHT22;8446;50.998;6.250;2023-08-21T09:20:07;22.90;99.90
16666;DHT22;8446;50.998;6.250;2023-08-21T09:22:34;22.90;99.90
16666;DHT22;8446;50.998;6.250;2023-08-21T09:25:03;23.30;99.90
16666;DHT22;8446;50.998;6.250;2023-08-21T09:27:32;23.30;99.90
16666;DHT22;8446;50.998;6.250;2023-08-21T09:29:59;23.20;99.90
16666;DHT22;8446;50.998;6.250;2023-08-21T09:32:26;23.20;99.90
16666;DHT22;8446;50.998;6.250;2023-08-21T09:34:53;23.10;99.90
16666;DHT22;8446;50.998;6.250;2023-08-21T09:37:20;23.50;99.90
16666;DHT22;8446;50.998;6.250;2023-08-21T09:39:47;23.70;99.90
16666;DHT22;8446;50.998;6.250;2023-08-21T09:42:15;23.90;99.90
16666;DHT22;8446;50.998;6.250;2023-08-21T09:44:42;24.30;99.90
16666;DHT22;8446;50.998;6.250;2023-08-21T09:47:10;24.00;99.90
16666;DHT22;8446;50.998;6.250;2023-08-21T09:49:38;24.00;99.90
16666;DHT22;8446;50.998;6.250;2023-08-21T09:52:06;23.80;99.90
16666;DHT22;8446;50.998;6.250;2023-08-21T09:54:36;24.50;99.90
16666;DHT22;8446;50.998;6.250;2023-08-21T09:57:04;24.00;99.90
16666;DHT22;8446;50.998;6.250;2023-08-21T09:59:32;24.50;99.90
16666;DHT22;8446;50.998;6.250;2023-08-21T10:02:00;24.60;99.90
16666;DHT22;8446;50.998;6.250;2023-08-21T10:04:28;24.20;99.90
16666;DHT22;8446;50.998;6.250;2023-08-21T10:06:56;25.10;99.90
16666;DHT22;8446;50.998;6.250;2023-08-21T10:09:24;24.40;99.90
16666;DHT22;8446;50.998;6.250;2023-08-21T10:11:52;24.90;99.90
16666;DHT22;8446;50.998;6.250;2023-08-21T10:14:21;25.10;99.90
16666;DHT22;8446;50.998;6.250;2023-08-21T10:16:50;24.60;99.90
16666;DHT22;8446;50.998;6.250;2023-08-21T10:19:18;25.40;99.90
16666;DHT22;8446;50.998;6.250;2023-08-21T10:21:47;25.30;99.90
16666;DHT22;8446;50.998;6.250;2023-08-21T10:24:26;25.30;99.90
16666;DHT22;8446;50.998;6.250;2023-08-21T10:26:58;26.00;99.90
16666;DHT22;8446;50.998;6.250;2023-08-21T10:29:24;25.80;99.90
16666;DHT22;8446;50.998;6.250;2023-08-21T10:32:00;25.20;99.90
16666;DHT22;8446;50.998;6.250;2023-08-21T10:34:32;25.90;99.90
16666;DHT22;8446;50.998;6.250;2023-08-21T10:37:04;26.00;99.90
16666;DHT22;8446;50.998;6.250;2023-08-21T10:39:31;26.10;99.90
16666;DHT22;8446;50.998;6.250;2023-08-21T10:42:01;25.70;99.90
16666;DHT22;8446;50.998;6.250;2023-08-21T10:44:36;26.20;99.90
16666;DHT22;8446;50.998;6.250;2023-08-21T10:47:15;26.10;99.90
16666;DHT22;8446;50.998;6.250;2023-08-21T10:49:43;26.70;99.90
16666;DHT22;8446;50.998;6.250;2023-08-21T10:52:11;26.30;99.90
16666;DHT22;8446;50.998;6.250;2023-08-21T10:54:48;26.00;99.90
16666;DHT22;8446;50.998;6.250;2023-08-21T10:57:15;26.10;99.90
16666;DHT22;8446;50.998;6.250;2023-08-21T10:59:53;26.50;99.90
16666;DHT22;8446;50.998;6.250;2023-08-21T11:02:22;26.10;99.90
16666;DHT22;8446;50.998;6.250;2023-08-21T11:04:50;26.10;99.90
16666;DHT22;8446;50.998;6.250;2023-08-21T11:07:17;26.30;99.90
16666;DHT22;8446;50.998;6.250;2023-08-21T11:09:44;26.40;99.90
16666;DHT22;8446;50.998;6.250;2023-08-21T11:12:13;26.60;99.90
16666;DHT22;8446;50.998;6.250;2023-08-21T11:14:41;27.00;99.90
16666;DHT22;8446;50.998;6.250;2023-08-21T11:17:08;26.50;99.90
16666;DHT22;8446;50.998;6.250;2023-08-21T11:19:37;26.70;99.90
16666;DHT22;8446;50.998;6.250;2023-08-21T11:22:04;27.40;99.40
16666;DHT22;8446;50.998;6.250;2023-08-21T11:24:39;27.10;99.30
16666;DHT22;8446;50.998;6.250;2023-08-21T11:27:07;27.00;99.90
16666;DHT22;8446;50.998;6.250;2023-08-21T11:29:36;26.80;99.90
16666;DHT22;8446;50.998;6.250;2023-08-21T11:32:08;26.30;99.90
16666;DHT22;8446;50.998;6.250;2023-08-21T11:34:36;26.50;99.90
16666;DHT22;8446;50.998;6.250;2023-08-21T11:37:04;27.50;99.30
16666;DHT22;8446;50.998;6.250;2023-08-21T11:39:44;27.20;99.90
16666;DHT22;8446;50.998;6.250;2023-08-21T11:42:12;27.40;99.90
16666;DHT22;8446;50.998;6.250;2023-08-21T11:44:43;27.60;99.10
16666;DHT22;8446;50.998;6.250;2023-08-21T11:47:11;27.40;96.90
16666;DHT22;8446;50.998;6.250;2023-08-21T11:49:41;27.80;99.90
16666;DHT22;8446;50.998;6.250;2023-08-21T11:52:09;27.50;95.80
16666;DHT22;8446;50.998;6.250;2023-08-21T11:54:37;27.40;98.70
16666;DHT22;8446;50.998;6.250;2023-08-21T11:57:05;27.50;99.90
16666;DHT22;8446;50.998;6.250;2023-08-21T11:59:32;28.90;95.00
16666;DHT22;8446;50.998;6.250;2023-08-21T12:01:59;28.20;97.10
16666;DHT22;8446;50.998;6.250;2023-08-21T12:04:26;27.80;98.00
16666;DHT22;8446;50.998;6.250;2023-08-21T12:06:54;28.00;97.60
16666;DHT22;8446;50.998;6.250;2023-08-21T12:09:21;27.70;97.00
16666;DHT22;8446;50.998;6.250;2023-08-21T12:11:48;27.80;97.80
16666;DHT22;8446;50.998;6.250;2023-08-21T12:14:15;28.10;97.90
16666;DHT22;8446;50.998;6.250;2023-08-21T12:16:42;28.10;95.40
16666;DHT22;8446;50.998;6.250;2023-08-21T12:19:09;27.60;98.00
16666;DHT22;8446;50.998;6.250;2023-08-21T12:21:37;28.00;96.00
16666;DHT22;8446;50.998;6.250;2023-08-21T12:24:06;28.90;95.30
16666;DHT22;8446;50.998;6.250;2023-08-21T12:26:33;28.20;97.20
16666;DHT22;8446;50.998;6.250;2023-08-21T12:29:00;27.40;95.40
16666;DHT22;8446;50.998;6.250;2023-08-21T12:31:27;27.50;96.30
16666;DHT22;8446;50.998;6.250;2023-08-21T12:33:54;28.00;94.70
16666;DHT22;8446;50.998;6.250;2023-08-21T12:36:21;28.00;94.80
16666;DHT22;8446;50.998;6.250;2023-08-21T12:38:48;28.50;96.60
16666;DHT22;8446;50.998;6.250;2023-08-21T12:41:16;28.20;95.60
16666;DHT22;8446;50.998;6.250;2023-08-21T12:43:43;27.90;96.50
16666;DHT22;8446;50.998;6.250;2023-08-21T12:46:10;27.70;95.90
16666;DHT22;8446;50.998;6.250;2023-08-21T12:48:37;27.40;95.90
16666;DHT22;8446;50.998;6.250;2023-08-21T12:51:03;27.10;96.30
16666;DHT22;8446;50.998;6.250;2023-08-21T12:53:30;27.00;96.10
16666;DHT22;8446;50.998;6.250;2023-08-21T12:55:57;26.20;97.50
16666;DHT22;8446;50.998;6.250;2023-08-21T12:58:25;26.00;98.90
16666;DHT22;8446;50.998;6.250;2023-08-21T13:00:53;26.60;97.10
16666;DHT22;8446;50.998;6.250;2023-08-21T13:03:19;26.10;98.60
16666;DHT22;8446;50.998;6.250;2023-08-21T13:05:46;26.50;98.80
16666;DHT22;8446;50.998;6.250;2023-08-21T13:08:13;26.70;98.60
16666;DHT22;8446;50.998;6.250;2023-08-21T13:10:40;26.30;98.70
16666;DHT22;8446;50.998;6.250;2023-08-21T13:13:07;26.90;98.90
16666;DHT22;8446;50.998;6.250;2023-08-21T13:15:35;27.90;96.40
16666;DHT22;8446;50.998;6.250;2023-08-21T13:18:02;27.60;96.70
16666;DHT22;8446;50.998;6.250;2023-08-21T13:20:29;28.00;96.90
16666;DHT22;8446;50.998;6.250;2023-08-21T13:22:56;28.70;94.90
16666;DHT22;8446;50.998;6.250;2023-08-21T13:25:23;28.40;97.20
16666;DHT22;8446;50.998;6.250;2023-08-21T13:27:51;28.30;95.80
16666;DHT22;8446;50.998;6.250;2023-08-21T13:30:18;28.80;96.30
16666;DHT22;8446;50.998;6.250;2023-08-21T13:32:47;28.50;94.60
16666;DHT22;8446;50.998;6.250;2023-08-21T13:35:13;28.70;94.80
16666;DHT22;8446;50.998;6.250;2023-08-21T13:37:41;29.10;94.60
16666;DHT22;8446;50.998;6.250;2023-08-21T13:40:09;28.80;93.50
16666;DHT22;8446;50.998;6.250;2023-08-21T13:42:37;28.70;93.40
16666;DHT22;8446;50.998;6.250;2023-08-21T13:45:07;28.80;94.60
16666;DHT22;8446;50.998;6.250;2023-08-21T13:47:35;28.90;95.60
16666;DHT22;8446;50.998;6.250;2023-08-21T13:50:03;28.90;94.30
16666;DHT22;8446;50.998;6.250;2023-08-21T13:52:31;28.30;94.60
16666;DHT22;8446;50.998;6.250;2023-08-21T13:54:59;28.50;94.40
16666;DHT22;8446;50.998;6.250;2023-08-21T13:57:26;28.70;94.10
16666;DHT22;8446;50.998;6.250;2023-08-21T13:59:53;29.00;95.20
16666;DHT22;8446;50.998;6.250;2023-08-21T14:02:20;28.60;94.30
16666;DHT22;8446;50.998;6.250;2023-08-21T14:04:48;29.20;96.50
16666;DHT22;8446;50.998;6.250;2023-08-21T14:07:16;28.40;94.20
16666;DHT22;8446;50.998;6.250;2023-08-21T14:09:43;28.60;94.50
16666;DHT22;8446;50.998;6.250;2023-08-21T14:12:10;28.20;94.50
16666;DHT22;8446;50.998;6.250;2023-08-21T14:14:36;27.80;95.40
16666;DHT22;8446;50.998;6.250;2023-08-21T14:17:03;29.00;93.80
16666;DHT22;8446;50.998;6.250;2023-08-21T14:19:30;28.50;94.10
16666;DHT22;8446;50.998;6.250;2023-08-21T14:21:58;28.60;93.50
16666;DHT22;8446;50.998;6.250;2023-08-21T14:24:26;28.90;92.60
16666;DHT22;8446;50.998;6.250;2023-08-21T14:26:53;28.90;94.70
16666;DHT22;8446;50.998;6.250;2023-08-21T14:29:20;29.20;93.00
16666;DHT22;8446;50.998;6.250;2023-08-21T14:31:47;29.30;92.40
16666;DHT22;8446;50.998;6.250;2023-08-21T14:34:14;29.10;92.60
16666;DHT22;8446;50.998;6.250;2023-08-21T14:36:41;29.00;93.80
16666;DHT22;8446;50.998;6.250;2023-08-21T14:39:08;29.60;92.20
16666;DHT22;8446;50.998;6.250;2023-08-21T14:41:38;29.80;92.60
16666;DHT22;8446;50.998;6.250;2023-08-21T14:44:05;29.10;93.70
16666;DHT22;8446;50.998;6.250;2023-08-21T14:46:32;29.80;92.30
16666;DHT22;8446;50.998;6.250;2023-08-21T14:48:59;29.70;91.90
16666;DHT22;8446;50.998;6.250;2023-08-21T14:51:26;28.80;92.60
16666;DHT22;8446;50.998;6.250;2023-08-21T14:53:52;29.00;95.30
16666;DHT22;8446;50.998;6.250;2023-08-21T14:56:19;28.80;92.80
16666;DHT22;8446;50.998;6.250;2023-08-21T14:58:48;28.50;93.60
16666;DHT22;8446;50.998;6.250;2023-08-21T15:01:14;28.50;92.00
16666;DHT22;8446;50.998;6.250;2023-08-21T15:03:42;28.00;93.70
16666;DHT22;8446;50.998;6.250;2023-08-21T15:06:09;28.20;92.90
16666;DHT22;8446;50.998;6.250;2023-08-21T15:08:38;27.90;95.10
16666;DHT22;8446;50.998;6.250;2023-08-21T15:11:05;27.60;93.80
16666;DHT22;8446;50.998;6.250;2023-08-21T15:13:32;28.70;92.90
16666;DHT22;8446;50.998;6.250;2023-08-21T15:16:00;28.40;92.70
16666;DHT22;8446;50.998;6.250;2023-08-21T15:18:26;28.10;95.70
16666;DHT22;8446;50.998;6.250;2023-08-21T15:20:53;28.30;93.50
16666;DHT22;8446;50.998;6.250;2023-08-21T15:23:20;29.30;93.40
16666;DHT22;8446;50.998;6.250;2023-08-21T15:25:47;28.80;92.60
16666;DHT22;8446;50.998;6.250;2023-08-21T15:28:14;29.10;94.40
16666;DHT22;8446;50.998;6.250;2023-08-21T15:30:41;29.40;92.90
16666;DHT22;8446;50.998;6.250;2023-08-21T15:33:09;29.10;89.70
16666;DHT22;8446;50.998;6.250;2023-08-21T15:35:35;28.60;90.30
16666;DHT22;8446;50.998;6.250;2023-08-21T15:38:02;28.90;90.70
16666;DHT22;8446;50.998;6.250;2023-08-21T15:40:29;29.30;92.50
16666;DHT22;8446;50.998;6.250;2023-08-21T15:42:57;29.00;91.00
16666;DHT22;8446;50.998;6.250;2023-08-21T15:45:25;29.30;91.80
16666;DHT22;8446;50.998;6.250;2023-08-21T15:47:52;29.10;92.60